sensor_id;sensor_type;location;lat;lon;timestamp;P1;durP1;ratioP1;P2;durP2;ratioP2
8415;SDS011;4245;42.120;24.732;2022-07-23T00:02:25;13.40;;;8.23;;
8415;SDS011;4245;42.120;24.732;2022-07-23T00:04:52;13.27;;;7.60;;
8415;SDS011;4245;42.120;24.732;2022-07-23T00:07:18;10.60;;;7.83;;
8415;SDS011;4245;42.120;24.732;2022-07-23T00:09:45;11.93;;;7.87;;
8415;SDS011;4245;42.120;24.732;2022-07-23T00:12:12;13.17;;;7.53;;
8415;SDS011;4245;42.120;24.732;2022-07-23T00:14:39;14.00;;;9.70;;
8415;SDS011;4245;42.120;24.732;2022-07-23T00:17:06;14.07;;;8.83;;
8415;SDS011;4245;42.120;24.732;2022-07-23T00:19:34;16.27;;;9.20;;
8415;SDS011;4245;42.120;24.732;2022-07-23T00:22:01;12.40;;;9.63;;
8415;SDS011;4245;42.120;24.732;2022-07-23T00:24:27;15.10;;;9.37;;
8415;SDS011;4245;42.120;24.732;2022-07-23T00:26:54;14.73;;;9.07;;
8415;SDS011;4245;42.120;24.732;2022-07-23T00:29:21;26.77;;;12.93;;
8415;SDS011;4245;42.120;24.732;2022-07-23T00:31:48;12.07;;;8.47;;
8415;SDS011;4245;42.120;24.732;2022-07-23T00:34:15;18.27;;;10.00;;
8415;SDS011;4245;42.120;24.732;2022-07-23T00:36:43;16.53;;;10.13;;
8415;SDS011;4245;42.120;24.732;2022-07-23T00:39:10;14.57;;;10.03;;
8415;SDS011;4245;42.120;24.732;2022-07-23T00:41:36;18.10;;;9.07;;
8415;SDS011;4245;42.120;24.732;2022-07-23T00:46:46;11.90;;;8.83;;
8415;SDS011;4245;42.120;24.732;2022-07-23T00:49:15;11.07;;;8.57;;
8415;SDS011;4245;42.120;24.732;2022-07-23T00:51:43;13.33;;;9.23;;
8415;SDS011;4245;42.120;24.732;2022-07-23T00:54:10;16.40;;;9.07;;
8415;SDS011;4245;42.120;24.732;2022-07-23T00:56:37;12.30;;;8.63;;
8415;SDS011;4245;42.120;24.732;2022-07-23T00:59:05;15.23;;;8.70;;
8415;SDS011;4245;42.120;24.732;2022-07-23T01:01:32;14.80;;;8.67;;
8415;SDS011;4245;42.120;24.732;2022-07-23T01:03:59;12.07;;;9.40;;
8415;SDS011;4245;42.120;24.732;2022-07-23T01:06:26;13.57;;;9.63;;
8415;SDS011;4245;42.120;24.732;2022-07-23T01:08:54;12.40;;;9.00;;
8415;SDS011;4245;42.120;24.732;2022-07-23T01:11:22;15.20;;;9.83;;
8415;SDS011;4245;42.120;24.732;2022-07-23T01:13:49;14.50;;;10.97;;
8415;SDS011;4245;42.120;24.732;2022-07-23T01:16:16;13.20;;;9.10;;
8415;SDS011;4245;42.120;24.732;2022-07-23T01:18:43;15.57;;;10.73;;
8415;SDS011;4245;42.120;24.732;2022-07-23T01:21:10;13.23;;;10.07;;
8415;SDS011;4245;42.120;24.732;2022-07-23T01:23:40;15.57;;;9.57;;
8415;SDS011;4245;42.120;24.732;2022-07-23T01:26:07;12.60;;;9.57;;
8415;SDS011;4245;42.120;24.732;2022-07-23T01:28:34;13.57;;;10.10;;
8415;SDS011;4245;42.120;24.732;2022-07-23T01:31:01;15.77;;;10.67;;
8415;SDS011;4245;42.120;24.732;2022-07-23T01:33:28;13.37;;;9.30;;
8415;SDS011;4245;42.120;24.732;2022-07-23T01:35:55;19.23;;;10.93;;
8415;SDS011;4245;42.120;24.732;2022-07-23T01:38:22;15.00;;;10.57;;
8415;SDS011;4245;42.120;24.732;2022-07-23T01:40:50;17.47;;;11.40;;
8415;SDS011;4245;42.120;24.732;2022-07-23T01:43:17;16.80;;;11.67;;
8415;SDS011;4245;42.120;24.732;2022-07-23T01:45:43;17.83;;;12.20;;
8415;SDS011;4245;42.120;24.732;2022-07-23T01:48:10;18.80;;;12.50;;
8415;SDS011;4245;42.120;24.732;2022-07-23T01:50:37;17.57;;;13.07;;
8415;SDS011;4245;42.120;24.732;2022-07-23T01:53:04;20.17;;;12.53;;
8415;SDS011;4245;42.120;24.732;2022-07-23T01:55:31;19.27;;;11.50;;
8415;SDS011;4245;42.120;24.732;2022-07-23T01:57:59;17.17;;;13.40;;
8415;SDS011;4245;42.120;24.732;2022-07-23T02:00:26;19.13;;;14.10;;
8415;SDS011;4245;42.120;24.732;2022-07-23T02:02:53;20.07;;;13.57;;
8415;SDS011;4245;42.120;24.732;2022-07-23T02:05:19;21.47;;;13.07;;
8415;SDS011;4245;42.120;24.732;2022-07-23T02:07:46;17.40;;;13.60;;
8415;SDS011;4245;42.120;24.732;2022-07-23T02:10:13;19.83;;;14.10;;
8415;SDS011;4245;42.120;24.732;2022-07-23T02:12:40;19.00;;;12.77;;
8415;SDS011;4245;42.120;24.732;2022-07-23T02:15:08;19.60;;;13.80;;
8415;SDS011;4245;42.120;24.732;2022-07-23T02:17:35;19.47;;;12.60;;
8415;SDS011;4245;42.120;24.732;2022-07-23T02:20:02;21.07;;;13.77;;
8415;SDS011;4245;42.120;24.732;2022-07-23T02:22:30;18.97;;;12.90;;
8415;SDS011;4245;42.120;24.732;2022-07-23T02:24:56;19.90;;;13.70;;
8415;SDS011;4245;42.120;24.732;2022-07-23T02:27:23;19.37;;;13.20;;
8415;SDS011;4245;42.120;24.732;2022-07-23T02:29:50;19.03;;;12.20;;
8415;SDS011;4245;42.120;24.732;2022-07-23T02:32:18;16.93;;;12.03;;
8415;SDS011;4245;42.120;24.732;2022-07-23T02:34:46;16.77;;;11.30;;
8415;SDS011;4245;42.120;24.732;2022-07-23T02:37:13;19.37;;;11.43;;
8415;SDS011;4245;42.120;24.732;2022-07-23T02:39:40;11.80;;;9.40;;
8415;SDS011;4245;42.120;24.732;2022-07-23T02:42:07;14.50;;;10.70;;
8415;SDS011;4245;42.120;24.732;2022-07-23T02:44:34;15.67;;;9.90;;
8415;SDS011;4245;42.120;24.732;2022-07-23T02:47:00;15.40;;;10.10;;
8415;SDS011;4245;42.120;24.732;2022-07-23T02:49:29;13.10;;;9.20;;
8415;SDS011;4245;42.120;24.732;2022-07-23T02:51:55;15.17;;;9.93;;
8415;SDS011;4245;42.120;24.732;2022-07-23T02:54:22;14.37;;;9.27;;
8415;SDS011;4245;42.120;24.732;2022-07-23T02:56:49;14.20;;;9.00;;
8415;SDS011;4245;42.120;24.732;2022-07-23T02:59:16;12.63;;;8.30;;
8415;SDS011;4245;42.120;24.732;2022-07-23T03:01:43;15.97;;;9.57;;
8415;SDS011;4245;42.120;24.732;2022-07-23T03:04:11;17.40;;;9.57;;
8415;SDS011;4245;42.120;24.732;2022-07-23T03:06:39;11.67;;;9.00;;
8415;SDS011;4245;42.120;24.732;2022-07-23T03:09:06;19.63;;;9.67;;
8415;SDS011;4245;42.120;24.732;2022-07-23T03:11:33;13.20;;;9.33;;
8415;SDS011;4245;42.120;24.732;2022-07-23T03:14:00;12.30;;;9.17;;
8415;SDS011;4245;42.120;24.732;2022-07-23T03:16:26;10.17;;;8.57;;
8415;SDS011;4245;42.120;24.732;2022-07-23T03:18:53;13.63;;;9.27;;
8415;SDS011;4245;42.120;24.732;2022-07-23T03:21:20;10.53;;;8.30;;
8415;SDS011;4245;42.120;24.732;2022-07-23T03:23:48;10.63;;;9.07;;
8415;SDS011;4245;42.120;24.732;2022-07-23T03:26:15;9.37;;;7.70;;
8415;SDS011;4245;42.120;24.732;2022-07-23T03:28:42;12.07;;;8.77;;
8415;SDS011;4245;42.120;24.732;2022-07-23T03:31:09;12.30;;;8.60;;
8415;SDS011;4245;42.120;24.732;2022-07-23T03:33:36;12.63;;;9.27;;
8415;SDS011;4245;42.120;24.732;2022-07-23T03:36:02;13.20;;;8.97;;
8415;SDS011;4245;42.120;24.732;2022-07-23T03:38:29;13.47;;;9.00;;
8415;SDS011;4245;42.120;24.732;2022-07-23T03:40:57;13.93;;;8.93;;
8415;SDS011;4245;42.120;24.732;2022-07-23T03:43:24;13.47;;;8.73;;
8415;SDS011;4245;42.120;24.732;2022-07-23T03:45:51;16.03;;;9.20;;
8415;SDS011;4245;42.120;24.732;2022-07-23T03:48:18;12.47;;;8.70;;
8415;SDS011;4245;42.120;24.732;2022-07-23T03:50:44;13.53;;;8.20;;
8415;SDS011;4245;42.120;24.732;2022-07-23T03:53:11;15.13;;;8.20;;
8415;SDS011;4245;42.120;24.732;2022-07-23T03:55:38;14.43;;;9.00;;
8415;SDS011;4245;42.120;24.732;2022-07-23T03:58:06;15.37;;;9.07;;
8415;SDS011;4245;42.120;24.732;2022-07-23T04:00:33;14.17;;;8.50;;
8415;SDS011;4245;42.120;24.732;2022-07-23T04:03:00;13.70;;;8.47;;
8415;SDS011;4245;42.120;24.732;2022-07-23T04:05:27;12.60;;;8.70;;
8415;SDS011;4245;42.120;24.732;2022-07-23T04:07:53;14.90;;;9.13;;
8415;SDS011;4245;42.120;24.732;2022-07-23T04:10:20;13.77;;;8.77;;
8415;SDS011;4245;42.120;24.732;2022-07-23T04:12:47;18.20;;;9.20;;
8415;SDS011;4245;42.120;24.732;2022-07-23T04:15:15;10.80;;;8.77;;
8415;SDS011;4245;42.120;24.732;2022-07-23T04:17:42;16.90;;;8.80;;
8415;SDS011;4245;42.120;24.732;2022-07-23T04:20:10;15.07;;;8.77;;
8415;SDS011;4245;42.120;24.732;2022-07-23T04:22:37;12.80;;;8.47;;
8415;SDS011;4245;42.120;24.732;2022-07-23T04:25:04;14.10;;;9.37;;
8415;SDS011;4245;42.120;24.732;2022-07-23T04:27:32;11.83;;;10.27;;
8415;SDS011;4245;42.120;24.732;2022-07-23T04:29:59;16.40;;;8.70;;
8415;SDS011;4245;42.120;24.732;2022-07-23T04:32:27;14.63;;;8.30;;
8415;SDS011;4245;42.120;24.732;2022-07-23T04:34:54;14.37;;;8.40;;
8415;SDS011;4245;42.120;24.732;2022-07-23T04:37:21;15.83;;;8.57;;
8415;SDS011;4245;42.120;24.732;2022-07-23T04:39:47;15.10;;;8.63;;
8415;SDS011;4245;42.120;24.732;2022-07-23T04:42:14;14.87;;;9.50;;
8415;SDS011;4245;42.120;24.732;2022-07-23T04:44:41;15.03;;;9.80;;
8415;SDS011;4245;42.120;24.732;2022-07-23T04:47:08;16.47;;;9.23;;
8415;SDS011;4245;42.120;24.732;2022-07-23T04:49:37;13.00;;;8.90;;
8415;SDS011;4245;42.120;24.732;2022-07-23T04:52:04;15.50;;;9.37;;
8415;SDS011;4245;42.120;24.732;2022-07-23T04:54:30;15.07;;;9.67;;
8415;SDS011;4245;42.120;24.732;2022-07-23T04:56:57;17.03;;;9.50;;
8415;SDS011;4245;42.120;24.732;2022-07-23T04:59:24;18.97;;;9.60;;
8415;SDS011;4245;42.120;24.732;2022-07-23T05:01:51;11.70;;;9.10;;
8415;SDS011;4245;42.120;24.732;2022-07-23T05:04:18;15.17;;;9.60;;
8415;SDS011;4245;42.120;24.732;2022-07-23T05:06:46;11.83;;;8.93;;
8415;SDS011;4245;42.120;24.732;2022-07-23T05:09:13;18.10;;;9.63;;
8415;SDS011;4245;42.120;24.732;2022-07-23T05:11:39;13.53;;;9.60;;
8415;SDS011;4245;42.120;24.732;2022-07-23T05:14:06;25.20;;;10.87;;
8415;SDS011;4245;42.120;24.732;2022-07-23T05:16:33;12.83;;;9.07;;
8415;SDS011;4245;42.120;24.732;2022-07-23T05:19:00;12.40;;;8.77;;
8415;SDS011;4245;42.120;24.732;2022-07-23T05:21:26;13.93;;;9.37;;
8415;SDS011;4245;42.120;24.732;2022-07-23T05:23:55;14.90;;;9.30;;
8415;SDS011;4245;42.120;24.732;2022-07-23T05:26:21;13.90;;;9.30;;
8415;SDS011;4245;42.120;24.732;2022-07-23T05:28:49;24.37;;;10.33;;
8415;SDS011;4245;42.120;24.732;2022-07-23T05:31:16;15.17;;;9.27;;
8415;SDS011;4245;42.120;24.732;2022-07-23T05:33:43;15.57;;;10.13;;
8415;SDS011;4245;42.120;24.732;2022-07-23T05:36:10;15.17;;;10.80;;
8415;SDS011;4245;42.120;24.732;2022-07-23T05:38:37;17.63;;;10.40;;
8415;SDS011;4245;42.120;24.732;2022-07-23T05:41:05;14.50;;;10.23;;
8415;SDS011;4245;42.120;24.732;2022-07-23T05:43:32;15.57;;;9.47;;
8415;SDS011;4245;42.120;24.732;2022-07-23T05:45:59;15.87;;;9.93;;
8415;SDS011;4245;42.120;24.732;2022-07-23T05:48:25;19.97;;;11.17;;
8415;SDS011;4245;42.120;24.732;2022-07-23T05:50:52;16.13;;;10.20;;
8415;SDS011;4245;42.120;24.732;2022-07-23T05:53:19;24.10;;;9.63;;
8415;SDS011;4245;42.120;24.732;2022-07-23T05:55:46;15.90;;;10.27;;
8415;SDS011;4245;42.120;24.732;2022-07-23T05:58:14;13.07;;;10.02;;
8415;SDS011;4245;42.120;24.732;2022-07-23T06:00:41;17.48;;;9.93;;
8415;SDS011;4245;42.120;24.732;2022-07-23T06:03:08;13.00;;;9.95;;
8415;SDS011;4245;42.120;24.732;2022-07-23T06:05:35;19.88;;;10.43;;
8415;SDS011;4245;42.120;24.732;2022-07-23T06:08:02;15.02;;;10.30;;
8415;SDS011;4245;42.120;24.732;2022-07-23T06:10:29;13.05;;;9.18;;
8415;SDS011;4245;42.120;24.732;2022-07-23T06:12:55;16.48;;;9.82;;
8415;SDS011;4245;42.120;24.732;2022-07-23T06:15:24;13.35;;;9.27;;
8415;SDS011;4245;42.120;24.732;2022-07-23T06:17:51;14.88;;;9.40;;
8415;SDS011;4245;42.120;24.732;2022-07-23T06:20:18;16.15;;;9.50;;
8415;SDS011;4245;42.120;24.732;2022-07-23T06:22:44;12.75;;;8.73;;
8415;SDS011;4245;42.120;24.732;2022-07-23T06:25:11;16.23;;;8.60;;
8415;SDS011;4245;42.120;24.732;2022-07-23T06:27:38;16.63;;;9.38;;
8415;SDS011;4245;42.120;24.732;2022-07-23T06:30:05;11.57;;;8.55;;
8415;SDS011;4245;42.120;24.732;2022-07-23T06:32:34;18.52;;;8.63;;
8415;SDS011;4245;42.120;24.732;2022-07-23T06:35:01;15.90;;;8.27;;
8415;SDS011;4245;42.120;24.732;2022-07-23T06:37:28;13.60;;;8.55;;
8415;SDS011;4245;42.120;24.732;2022-07-23T06:39:55;12.57;;;8.30;;
8415;SDS011;4245;42.120;24.732;2022-07-23T06:42:22;15.23;;;8.73;;
8415;SDS011;4245;42.120;24.732;2022-07-23T06:47:24;14.95;;;8.15;;
8415;SDS011;4245;42.120;24.732;2022-07-23T06:49:52;13.43;;;9.07;;
8415;SDS011;4245;42.120;24.732;2022-07-23T06:52:19;11.32;;;7.88;;
8415;SDS011;4245;42.120;24.732;2022-07-23T06:54:45;14.43;;;8.07;;
8415;SDS011;4245;42.120;24.732;2022-07-23T06:57:12;12.05;;;7.90;;
8415;SDS011;4245;42.120;24.732;2022-07-23T06:59:39;11.93;;;7.70;;
8415;SDS011;4245;42.120;24.732;2022-07-23T07:02:06;16.77;;;8.27;;
8415;SDS011;4245;42.120;24.732;2022-07-23T07:04:33;12.15;;;7.82;;
8415;SDS011;4245;42.120;24.732;2022-07-23T07:07:02;12.15;;;7.82;;
8415;SDS011;4245;42.120;24.732;2022-07-23T07:09:29;11.23;;;7.75;;
8415;SDS011;4245;42.120;24.732;2022-07-23T07:11:56;13.40;;;7.85;;
8415;SDS011;4245;42.120;24.732;2022-07-23T07:14:22;9.45;;;7.43;;
8415;SDS011;4245;42.120;24.732;2022-07-23T07:16:49;11.20;;;7.88;;
8415;SDS011;4245;42.120;24.732;2022-07-23T07:19:16;14.00;;;8.32;;
8415;SDS011;4245;42.120;24.732;2022-07-23T07:21:43;12.05;;;7.40;;
8415;SDS011;4245;42.120;24.732;2022-07-23T07:24:11;13.43;;;7.72;;
8415;SDS011;4245;42.120;24.732;2022-07-23T07:26:38;13.35;;;8.45;;
8415;SDS011;4245;42.120;24.732;2022-07-23T07:29:05;13.52;;;8.88;;
8415;SDS011;4245;42.120;24.732;2022-07-23T07:31:32;11.80;;;7.82;;
8415;SDS011;4245;42.120;24.732;2022-07-23T07:33:59;16.50;;;8.10;;
8415;SDS011;4245;42.120;24.732;2022-07-23T07:36:26;11.05;;;7.32;;
8415;SDS011;4245;42.120;24.732;2022-07-23T07:38:53;12.68;;;7.35;;
8415;SDS011;4245;42.120;24.732;2022-07-23T07:41:21;12.35;;;7.75;;
8415;SDS011;4245;42.120;24.732;2022-07-23T07:43:49;13.75;;;8.13;;
8415;SDS011;4245;42.120;24.732;2022-07-23T07:46:16;11.60;;;7.53;;
8415;SDS011;4245;42.120;24.732;2022-07-23T07:48:43;13.35;;;8.43;;
8415;SDS011;4245;42.120;24.732;2022-07-23T07:51:10;14.70;;;7.50;;
8415;SDS011;4245;42.120;24.732;2022-07-23T07:53:36;7.85;;;6.82;;
8415;SDS011;4245;42.120;24.732;2022-07-23T07:56:04;10.45;;;7.55;;
8415;SDS011;4245;42.120;24.732;2022-07-23T07:58:32;14.25;;;8.38;;
8415;SDS011;4245;42.120;24.732;2022-07-23T08:00:59;13.80;;;8.15;;
8415;SDS011;4245;42.120;24.732;2022-07-23T08:03:27;13.10;;;7.32;;
8415;SDS011;4245;42.120;24.732;2022-07-23T08:05:54;10.48;;;6.38;;
8415;SDS011;4245;42.120;24.732;2022-07-23T08:08:21;11.05;;;7.25;;
8415;SDS011;4245;42.120;24.732;2022-07-23T08:10:48;8.25;;;7.18;;
8415;SDS011;4245;42.120;24.732;2022-07-23T08:13:15;17.98;;;9.90;;
8415;SDS011;4245;42.120;24.732;2022-07-23T08:15:43;10.40;;;7.07;;
8415;SDS011;4245;42.120;24.732;2022-07-23T08:18:11;11.82;;;6.85;;
8415;SDS011;4245;42.120;24.732;2022-07-23T08:20:38;14.25;;;6.93;;
8415;SDS011;4245;42.120;24.732;2022-07-23T08:23:06;11.20;;;6.47;;
8415;SDS011;4245;42.120;24.732;2022-07-23T08:25:35;11.00;;;6.95;;
8415;SDS011;4245;42.120;24.732;2022-07-23T08:28:04;9.82;;;6.47;;
8415;SDS011;4245;42.120;24.732;2022-07-23T08:30:33;14.30;;;6.57;;
8415;SDS011;4245;42.120;24.732;2022-07-23T08:33:02;9.40;;;7.13;;
8415;SDS011;4245;42.120;24.732;2022-07-23T08:35:32;10.55;;;6.43;;
8415;SDS011;4245;42.120;24.732;2022-07-23T08:38:01;12.60;;;5.97;;
8415;SDS011;4245;42.120;24.732;2022-07-23T08:40:29;7.88;;;6.43;;
8415;SDS011;4245;42.120;24.732;2022-07-23T08:42:57;14.10;;;6.63;;
8415;SDS011;4245;42.120;24.732;2022-07-23T08:45:25;12.75;;;6.00;;
8415;SDS011;4245;42.120;24.732;2022-07-23T08:47:54;8.43;;;6.20;;
8415;SDS011;4245;42.120;24.732;2022-07-23T08:50:23;10.02;;;6.05;;
8415;SDS011;4245;42.120;24.732;2022-07-23T08:52:51;6.85;;;5.43;;
8415;SDS011;4245;42.120;24.732;2022-07-23T08:55:20;6.65;;;5.72;;
8415;SDS011;4245;42.120;24.732;2022-07-23T08:57:48;7.82;;;5.70;;
8415;SDS011;4245;42.120;24.732;2022-07-23T09:00:16;16.23;;;5.90;;
8415;SDS011;4245;42.120;24.732;2022-07-23T09:02:44;10.73;;;5.75;;
8415;SDS011;4245;42.120;24.732;2022-07-23T09:05:12;10.50;;;6.10;;
8415;SDS011;4245;42.120;24.732;2022-07-23T09:10:45;10.05;;;6.25;;
8415;SDS011;4245;42.120;24.732;2022-07-23T09:13:23;13.13;;;6.10;;
8415;SDS011;4245;42.120;24.732;2022-07-23T09:15:52;10.00;;;5.68;;
8415;SDS011;4245;42.120;24.732;2022-07-23T09:18:27;6.60;;;5.80;;
8415;SDS011;4245;42.120;24.732;2022-07-23T09:21:05;10.35;;;5.70;;
8415;SDS011;4245;42.120;24.732;2022-07-23T09:23:41;9.48;;;5.65;;
8415;SDS011;4245;42.120;24.732;2022-07-23T09:26:18;10.48;;;5.55;;
8415;SDS011;4245;42.120;24.732;2022-07-23T09:29:05;8.82;;;5.30;;
8415;SDS011;4245;42.120;24.732;2022-07-23T09:31:34;7.22;;;5.18;;
8415;SDS011;4245;42.120;24.732;2022-07-23T09:34:10;8.60;;;5.85;;
8415;SDS011;4245;42.120;24.732;2022-07-23T09:36:39;8.45;;;5.55;;
8415;SDS011;4245;42.120;24.732;2022-07-23T09:39:07;10.10;;;5.47;;
8415;SDS011;4245;42.120;24.732;2022-07-23T09:41:36;9.38;;;4.90;;
8415;SDS011;4245;42.120;24.732;2022-07-23T09:44:09;10.35;;;5.57;;
8415;SDS011;4245;42.120;24.732;2022-07-23T09:46:38;9.23;;;5.65;;
8415;SDS011;4245;42.120;24.732;2022-07-23T09:49:13;10.32;;;5.90;;
8415;SDS011;4245;42.120;24.732;2022-07-23T09:51:47;8.43;;;5.28;;
8415;SDS011;4245;42.120;24.732;2022-07-23T09:54:22;9.25;;;5.22;;
8415;SDS011;4245;42.120;24.732;2022-07-23T09:56:51;7.45;;;4.65;;
8415;SDS011;4245;42.120;24.732;2022-07-23T09:59:20;5.78;;;4.70;;
8415;SDS011;4245;42.120;24.732;2022-07-23T10:01:50;7.07;;;5.00;;
8415;SDS011;4245;42.120;24.732;2022-07-23T10:04:18;9.95;;;5.22;;
8415;SDS011;4245;42.120;24.732;2022-07-23T10:06:45;10.93;;;5.13;;
8415;SDS011;4245;42.120;24.732;2022-07-23T10:09:12;6.60;;;4.90;;
8415;SDS011;4245;42.120;24.732;2022-07-23T10:11:45;6.80;;;4.38;;
8415;SDS011;4245;42.120;24.732;2022-07-23T10:14:14;6.93;;;4.90;;
8415;SDS011;4245;42.120;24.732;2022-07-23T10:16:41;10.38;;;4.72;;
8415;SDS011;4245;42.120;24.732;2022-07-23T10:19:08;8.52;;;5.38;;
8415;SDS011;4245;42.120;24.732;2022-07-23T10:21:37;14.52;;;5.50;;
8415;SDS011;4245;42.120;24.732;2022-07-23T10:24:10;7.57;;;5.07;;
8415;SDS011;4245;42.120;24.732;2022-07-23T10:26:48;9.45;;;5.22;;
8415;SDS011;4245;42.120;24.732;2022-07-23T10:29:27;8.65;;;4.95;;
8415;SDS011;4245;42.120;24.732;2022-07-23T10:32:08;9.90;;;5.47;;
8415;SDS011;4245;42.120;24.732;2022-07-23T10:34:44;8.30;;;5.10;;
8415;SDS011;4245;42.120;24.732;2022-07-23T10:37:21;7.13;;;5.45;;
8415;SDS011;4245;42.120;24.732;2022-07-23T10:42:38;12.82;;;5.68;;
8415;SDS011;4245;42.120;24.732;2022-07-23T10:45:22;11.23;;;5.15;;
8415;SDS011;4245;42.120;24.732;2022-07-23T10:47:50;10.52;;;5.13;;
8415;SDS011;4245;42.120;24.732;2022-07-23T10:50:19;9.75;;;5.28;;
8415;SDS011;4245;42.120;24.732;2022-07-23T10:55:41;13.10;;;5.65;;
8415;SDS011;4245;42.120;24.732;2022-07-23T10:58:10;14.10;;;4.95;;
8415;SDS011;4245;42.120;24.732;2022-07-23T11:00:43;9.65;;;4.60;;
8415;SDS011;4245;42.120;24.732;2022-07-23T11:05:55;8.98;;;4.88;;
8415;SDS011;4245;42.120;24.732;2022-07-23T11:08:21;11.10;;;5.80;;
8415;SDS011;4245;42.120;24.732;2022-07-23T11:10:50;8.15;;;5.13;;
8415;SDS011;4245;42.120;24.732;2022-07-23T11:13:38;10.70;;;5.00;;
8415;SDS011;4245;42.120;24.732;2022-07-23T11:19:12;10.10;;;5.53;;
8415;SDS011;4245;42.120;24.732;2022-07-23T11:21:42;7.43;;;5.68;;
8415;SDS011;4245;42.120;24.732;2022-07-23T11:24:11;9.82;;;5.10;;
8415;SDS011;4245;42.120;24.732;2022-07-23T11:26:45;8.73;;;5.30;;
8415;SDS011;4245;42.120;24.732;2022-07-23T11:32:35;13.75;;;5.47;;
8415;SDS011;4245;42.120;24.732;2022-07-23T11:35:18;8.05;;;5.30;;
8415;SDS011;4245;42.120;24.732;2022-07-23T11:37:50;5.05;;;4.57;;
8415;SDS011;4245;42.120;24.732;2022-07-23T11:40:23;6.97;;;4.78;;
8415;SDS011;4245;42.120;24.732;2022-07-23T11:42:52;10.02;;;5.85;;
8415;SDS011;4245;42.120;24.732;2022-07-23T11:45:21;13.68;;;5.85;;
8415;SDS011;4245;42.120;24.732;2022-07-23T11:47:49;8.88;;;5.20;;
8415;SDS011;4245;42.120;24.732;2022-07-23T11:50:16;11.55;;;5.00;;
8415;SDS011;4245;42.120;24.732;2022-07-23T11:52:43;9.68;;;5.10;;
8415;SDS011;4245;42.120;24.732;2022-07-23T11:55:10;9.20;;;5.13;;
8415;SDS011;4245;42.120;24.732;2022-07-23T11:57:41;10.15;;;4.85;;
8415;SDS011;4245;42.120;24.732;2022-07-23T12:00:08;11.80;;;5.60;;
8415;SDS011;4245;42.120;24.732;2022-07-23T12:02:37;15.77;;;5.30;;
8415;SDS011;4245;42.120;24.732;2022-07-23T12:05:06;11.55;;;5.32;;
8415;SDS011;4245;42.120;24.732;2022-07-23T12:07:35;8.82;;;4.75;;
8415;SDS011;4245;42.120;24.732;2022-07-23T12:10:08;12.15;;;6.00;;
8415;SDS011;4245;42.120;24.732;2022-07-23T12:12:37;9.50;;;5.45;;
8415;SDS011;4245;42.120;24.732;2022-07-23T12:15:06;9.35;;;5.20;;
8415;SDS011;4245;42.120;24.732;2022-07-23T12:17:35;14.13;;;5.13;;
8415;SDS011;4245;42.120;24.732;2022-07-23T12:20:03;10.13;;;5.40;;
8415;SDS011;4245;42.120;24.732;2022-07-23T12:22:33;12.57;;;5.18;;
8415;SDS011;4245;42.120;24.732;2022-07-23T12:25:03;11.52;;;5.53;;
8415;SDS011;4245;42.120;24.732;2022-07-23T12:27:32;9.93;;;5.40;;
8415;SDS011;4245;42.120;24.732;2022-07-23T12:30:14;10.93;;;5.72;;
8415;SDS011;4245;42.120;24.732;2022-07-23T12:32:46;10.95;;;5.63;;
8415;SDS011;4245;42.120;24.732;2022-07-23T12:35:16;12.55;;;5.22;;
8415;SDS011;4245;42.120;24.732;2022-07-23T12:37:43;9.15;;;5.25;;
8415;SDS011;4245;42.120;24.732;2022-07-23T12:40:20;10.65;;;5.13;;
8415;SDS011;4245;42.120;24.732;2022-07-23T12:42:50;11.65;;;5.00;;
8415;SDS011;4245;42.120;24.732;2022-07-23T12:45:18;9.30;;;5.10;;
8415;SDS011;4245;42.120;24.732;2022-07-23T12:47:52;6.95;;;5.13;;
8415;SDS011;4245;42.120;24.732;2022-07-23T12:50:36;11.43;;;5.38;;
8415;SDS011;4245;42.120;24.732;2022-07-23T12:53:06;10.73;;;5.25;;
8415;SDS011;4245;42.120;24.732;2022-07-23T12:55:34;10.20;;;5.85;;
8415;SDS011;4245;42.120;24.732;2022-07-23T13:00:55;14.10;;;5.72;;
8415;SDS011;4245;42.120;24.732;2022-07-23T13:03:25;7.40;;;5.32;;
8415;SDS011;4245;42.120;24.732;2022-07-23T13:06:04;15.13;;;5.90;;
8415;SDS011;4245;42.120;24.732;2022-07-23T13:08:33;11.15;;;5.78;;
8415;SDS011;4245;42.120;24.732;2022-07-23T13:11:01;14.13;;;5.18;;
8415;SDS011;4245;42.120;24.732;2022-07-23T13:13:30;9.45;;;5.57;;
8415;SDS011;4245;42.120;24.732;2022-07-23T13:15:58;14.98;;;5.82;;
8415;SDS011;4245;42.120;24.732;2022-07-23T13:18:26;13.60;;;5.50;;
8415;SDS011;4245;42.120;24.732;2022-07-23T13:20:54;15.15;;;6.28;;
8415;SDS011;4245;42.120;24.732;2022-07-23T13:23:23;8.18;;;5.55;;
8415;SDS011;4245;42.120;24.732;2022-07-23T13:25:50;11.57;;;5.72;;
8415;SDS011;4245;42.120;24.732;2022-07-23T13:28:18;15.25;;;6.35;;
8415;SDS011;4245;42.120;24.732;2022-07-23T13:30:46;10.57;;;5.70;;
8415;SDS011;4245;42.120;24.732;2022-07-23T13:33:15;13.35;;;5.70;;
8415;SDS011;4245;42.120;24.732;2022-07-23T13:35:42;9.27;;;5.55;;
8415;SDS011;4245;42.120;24.732;2022-07-23T13:38:10;13.18;;;5.22;;
8415;SDS011;4245;42.120;24.732;2022-07-23T13:40:39;10.73;;;5.47;;
8415;SDS011;4245;42.120;24.732;2022-07-23T13:43:08;7.90;;;5.50;;
8415;SDS011;4245;42.120;24.732;2022-07-23T13:45:36;10.00;;;5.35;;
8415;SDS011;4245;42.120;24.732;2022-07-23T13:48:04;9.15;;;5.05;;
8415;SDS011;4245;42.120;24.732;2022-07-23T13:50:32;10.68;;;5.82;;
8415;SDS011;4245;42.120;24.732;2022-07-23T13:53:00;13.20;;;6.63;;
8415;SDS011;4245;42.120;24.732;2022-07-23T13:55:27;9.52;;;6.93;;
8415;SDS011;4245;42.120;24.732;2022-07-23T13:57:56;15.27;;;6.15;;
8415;SDS011;4245;42.120;24.732;2022-07-23T14:00:23;14.75;;;5.50;;
8415;SDS011;4245;42.120;24.732;2022-07-23T14:02:50;8.77;;;4.93;;
8415;SDS011;4245;42.120;24.732;2022-07-23T14:05:17;9.15;;;5.47;;
8415;SDS011;4245;42.120;24.732;2022-07-23T14:07:44;19.13;;;5.80;;
8415;SDS011;4245;42.120;24.732;2022-07-23T14:10:12;11.10;;;5.32;;
8415;SDS011;4245;42.120;24.732;2022-07-23T14:12:39;11.50;;;6.22;;
8415;SDS011;4245;42.120;24.732;2022-07-23T14:15:08;10.18;;;5.03;;
8415;SDS011;4245;42.120;24.732;2022-07-23T14:17:35;15.02;;;5.72;;
8415;SDS011;4245;42.120;24.732;2022-07-23T14:20:02;13.05;;;5.72;;
8415;SDS011;4245;42.120;24.732;2022-07-23T14:22:30;13.85;;;5.60;;
8415;SDS011;4245;42.120;24.732;2022-07-23T14:24:57;12.25;;;5.70;;
8415;SDS011;4245;42.120;24.732;2022-07-23T14:27:24;11.70;;;5.65;;
8415;SDS011;4245;42.120;24.732;2022-07-23T14:29:51;14.10;;;6.00;;
8415;SDS011;4245;42.120;24.732;2022-07-23T14:32:20;8.48;;;5.22;;
8415;SDS011;4245;42.120;24.732;2022-07-23T14:34:47;10.13;;;5.57;;
8415;SDS011;4245;42.120;24.732;2022-07-23T14:37:14;12.52;;;5.60;;
8415;SDS011;4245;42.120;24.732;2022-07-23T14:39:41;10.05;;;5.80;;
8415;SDS011;4245;42.120;24.732;2022-07-23T14:42:09;12.73;;;5.60;;
8415;SDS011;4245;42.120;24.732;2022-07-23T14:44:36;11.43;;;5.38;;
8415;SDS011;4245;42.120;24.732;2022-07-23T14:47:03;12.55;;;6.50;;
8415;SDS011;4245;42.120;24.732;2022-07-23T14:49:32;12.65;;;5.85;;
8415;SDS011;4245;42.120;24.732;2022-07-23T14:51:59;12.20;;;6.35;;
8415;SDS011;4245;42.120;24.732;2022-07-23T14:54:29;12.02;;;5.60;;
8415;SDS011;4245;42.120;24.732;2022-07-23T14:56:56;12.45;;;6.10;;
8415;SDS011;4245;42.120;24.732;2022-07-23T14:59:24;12.95;;;5.43;;
8415;SDS011;4245;42.120;24.732;2022-07-23T15:01:51;14.98;;;5.40;;
8415;SDS011;4245;42.120;24.732;2022-07-23T15:04:19;14.23;;;5.85;;
8415;SDS011;4245;42.120;24.732;2022-07-23T15:06:47;12.93;;;5.93;;
8415;SDS011;4245;42.120;24.732;2022-07-23T15:09:14;14.15;;;5.53;;
8415;SDS011;4245;42.120;24.732;2022-07-23T15:11:41;12.77;;;5.72;;
8415;SDS011;4245;42.120;24.732;2022-07-23T15:14:08;9.93;;;5.72;;
8415;SDS011;4245;42.120;24.732;2022-07-23T15:16:35;11.90;;;6.50;;
8415;SDS011;4245;42.120;24.732;2022-07-23T15:19:02;11.90;;;6.45;;
8415;SDS011;4245;42.120;24.732;2022-07-23T15:21:30;11.90;;;6.20;;